sensor_id;sensor_type;location;lat;lon;timestamp;temperature;humidity
58951;DHT22;44730;53.158;6.398;2022-08-19T00:01:44;14.70;99.90
58951;DHT22;44730;53.158;6.398;2022-08-19T00:04:12;14.70;99.90
58951;DHT22;44730;53.158;6.398;2022-08-19T00:06:43;14.70;99.90
58951;DHT22;44730;53.158;6.398;2022-08-19T00:09:12;14.60;99.90
58951;DHT22;44730;53.158;6.398;2022-08-19T00:11:41;14.70;99.90
58951;DHT22;44730;53.158;6.398;2022-08-19T00:14:09;14.60;99.90
58951;DHT22;44730;53.158;6.398;2022-08-19T00:16:36;14.60;99.90
58951;DHT22;44730;53.158;6.398;2022-08-19T00:19:03;14.60;99.90
58951;DHT22;44730;53.158;6.398;2022-08-19T00:21:29;14.50;99.90
58951;DHT22;44730;53.158;6.398;2022-08-19T00:23:57;14.50;99.90
58951;DHT22;44730;53.158;6.398;2022-08-19T00:26:25;14.50;99.90
58951;DHT22;44730;53.158;6.398;2022-08-19T00:28:50;14.50;99.90
58951;DHT22;44730;53.158;6.398;2022-08-19T00:31:16;14.40;99.90
58951;DHT22;44730;53.158;6.398;2022-08-19T00:33:43;14.40;99.90
58951;DHT22;44730;53.158;6.398;2022-08-19T00:36:09;14.40;99.90
58951;DHT22;44730;53.158;6.398;2022-08-19T00:38:37;14.40;99.90
58951;DHT22;44730;53.158;6.398;2022-08-19T00:41:05;14.30;99.90
58951;DHT22;44730;53.158;6.398;2022-08-19T00:43:31;14.30;99.90
58951;DHT22;44730;53.158;6.398;2022-08-19T00:45:56;14.30;99.90
58951;DHT22;44730;53.158;6.398;2022-08-19T00:48:22;14.30;99.90
58951;DHT22;44730;53.158;6.398;2022-08-19T00:50:50;14.20;99.90
58951;DHT22;44730;53.158;6.398;2022-08-19T00:53:22;14.20;99.90
58951;DHT22;44730;53.158;6.398;2022-08-19T00:55:50;14.10;99.90
58951;DHT22;44730;53.158;6.398;2022-08-19T00:58:19;14.10;99.90
58951;DHT22;44730;53.158;6.398;2022-08-19T01:00:46;14.10;99.90
58951;DHT22;44730;53.158;6.398;2022-08-19T01:03:17;14.10;99.90
58951;DHT22;44730;53.158;6.398;2022-08-19T01:05:44;14.00;99.90
58951;DHT22;44730;53.158;6.398;2022-08-19T01:08:10;14.00;99.90
58951;DHT22;44730;53.158;6.398;2022-08-19T01:10:41;14.00;99.90
58951;DHT22;44730;53.158;6.398;2022-08-19T01:13:09;13.90;99.90
58951;DHT22;44730;53.158;6.398;2022-08-19T01:15:44;13.90;99.90
58951;DHT22;44730;53.158;6.398;2022-08-19T01:18:13;13.90;99.90
58951;DHT22;44730;53.158;6.398;2022-08-19T01:20:40;13.80;99.90
58951;DHT22;44730;53.158;6.398;2022-08-19T01:23:07;13.80;99.90
58951;DHT22;44730;53.158;6.398;2022-08-19T01:25:47;13.80;99.90
58951;DHT22;44730;53.158;6.398;2022-08-19T01:28:25;13.80;99.90
58951;DHT22;44730;53.158;6.398;2022-08-19T01:30:52;13.70;99.90
58951;DHT22;44730;53.158;6.398;2022-08-19T01:33:19;13.70;99.90
58951;DHT22;44730;53.158;6.398;2022-08-19T01:35:46;13.70;99.90
58951;DHT22;44730;53.158;6.398;2022-08-19T01:38:37;13.70;99.90
58951;DHT22;44730;53.158;6.398;2022-08-19T01:41:03;13.70;99.90
58951;DHT22;44730;53.158;6.398;2022-08-19T01:43:29;13.70;99.90
58951;DHT22;44730;53.158;6.398;2022-08-19T01:45:55;13.60;99.90
58951;DHT22;44730;53.158;6.398;2022-08-19T01:48:40;13.60;99.90
58951;DHT22;44730;53.158;6.398;2022-08-19T01:51:08;13.60;99.90
58951;DHT22;44730;53.158;6.398;2022-08-19T01:53:35;13.50;99.90
58951;DHT22;44730;53.158;6.398;2022-08-19T01:56:01;13.50;99.90
58951;DHT22;44730;53.158;6.398;2022-08-19T01:58:32;13.50;99.90
58951;DHT22;44730;53.158;6.398;2022-08-19T02:01:01;13.50;99.90
58951;DHT22;44730;53.158;6.398;2022-08-19T02:03:28;13.50;99.90
58951;DHT22;44730;53.158;6.398;2022-08-19T02:05:59;13.50;99.90
58951;DHT22;44730;53.158;6.398;2022-08-19T02:08:29;13.50;99.90
58951;DHT22;44730;53.158;6.398;2022-08-19T02:10:55;13.50;99.90
58951;DHT22;44730;53.158;6.398;2022-08-19T02:13:22;13.50;99.90
58951;DHT22;44730;53.158;6.398;2022-08-19T02:15:48;13.60;99.90
58951;DHT22;44730;53.158;6.398;2022-08-19T02:18:13;13.60;99.90
58951;DHT22;44730;53.158;6.398;2022-08-19T02:20:41;13.60;99.90
58951;DHT22;44730;53.158;6.398;2022-08-19T02:23:09;13.50;99.90
58951;DHT22;44730;53.158;6.398;2022-08-19T02:25:35;13.60;99.90
58951;DHT22;44730;53.158;6.398;2022-08-19T02:28:01;13.60;99.90
58951;DHT22;44730;53.158;6.398;2022-08-19T02:30:27;13.60;99.90
58951;DHT22;44730;53.158;6.398;2022-08-19T02:32:53;13.60;99.90
58951;DHT22;44730;53.158;6.398;2022-08-19T02:35:19;13.50;99.90
58951;DHT22;44730;53.158;6.398;2022-08-19T02:37:45;13.60;99.90
58951;DHT22;44730;53.158;6.398;2022-08-19T02:40:36;13.60;99.90
58951;DHT22;44730;53.158;6.398;2022-08-19T02:43:03;13.50;99.90
58951;DHT22;44730;53.158;6.398;2022-08-19T02:45:36;13.60;99.90
58951;DHT22;44730;53.158;6.398;2022-08-19T02:48:02;13.50;99.90
58951;DHT22;44730;53.158;6.398;2022-08-19T02:50:29;13.50;99.90
58951;DHT22;44730;53.158;6.398;2022-08-19T02:52:55;13.50;99.90
58951;DHT22;44730;53.158;6.398;2022-08-19T02:55:21;13.50;99.90
58951;DHT22;44730;53.158;6.398;2022-08-19T02:57:47;13.50;99.90
58951;DHT22;44730;53.158;6.398;2022-08-19T03:00:13;13.40;99.90
58951;DHT22;44730;53.158;6.398;2022-08-19T03:02:40;13.40;99.90
58951;DHT22;44730;53.158;6.398;2022-08-19T03:05:08;13.40;99.90
58951;DHT22;44730;53.158;6.398;2022-08-19T03:07:35;13.40;99.90
58951;DHT22;44730;53.158;6.398;2022-08-19T03:10:01;13.40;99.90
58951;DHT22;44730;53.158;6.398;2022-08-19T03:12:27;13.40;99.90
58951;DHT22;44730;53.158;6.398;2022-08-19T03:14:53;13.40;99.90
58951;DHT22;44730;53.158;6.398;2022-08-19T03:17:19;13.40;99.90
58951;DHT22;44730;53.158;6.398;2022-08-19T03:19:45;13.40;99.90
58951;DHT22;44730;53.158;6.398;2022-08-19T03:22:11;13.40;99.90
58951;DHT22;44730;53.158;6.398;2022-08-19T03:24:37;13.50;99.90
58951;DHT22;44730;53.158;6.398;2022-08-19T03:27:03;13.50;99.90
58951;DHT22;44730;53.158;6.398;2022-08-19T03:29:31;13.50;99.90
58951;DHT22;44730;53.158;6.398;2022-08-19T03:32:02;13.50;99.90
58951;DHT22;44730;53.158;6.398;2022-08-19T03:34:30;13.60;99.90
58951;DHT22;44730;53.158;6.398;2022-08-19T03:36:58;13.60;99.90
58951;DHT22;44730;53.158;6.398;2022-08-19T03:39:25;13.60;99.90
58951;DHT22;44730;53.158;6.398;2022-08-19T03:41:54;13.50;99.90
58951;DHT22;44730;53.158;6.398;2022-08-19T03:44:23;13.60;99.90
58951;DHT22;44730;53.158;6.398;2022-08-19T03:46:54;13.60;99.90
58951;DHT22;44730;53.158;6.398;2022-08-19T03:49:22;13.50;99.90
58951;DHT22;44730;53.158;6.398;2022-08-19T03:51:49;13.50;99.90
58951;DHT22;44730;53.158;6.398;2022-08-19T03:54:18;13.50;99.90
58951;DHT22;44730;53.158;6.398;2022-08-19T03:56:46;13.40;99.90
58951;DHT22;44730;53.158;6.398;2022-08-19T03:59:18;13.50;99.90
58951;DHT22;44730;53.158;6.398;2022-08-19T04:02:12;13.50;99.90
58951;DHT22;44730;53.158;6.398;2022-08-19T04:04:40;13.50;99.90
58951;DHT22;44730;53.158;6.398;2022-08-19T04:07:06;13.50;99.90
58951;DHT22;44730;53.158;6.398;2022-08-19T04:09:34;13.50;99.90
58951;DHT22;44730;53.158;6.398;2022-08-19T04:12:03;13.50;99.90
58951;DHT22;44730;53.158;6.398;2022-08-19T04:14:32;13.50;99.90
58951;DHT22;44730;53.158;6.398;2022-08-19T04:17:00;13.50;99.90
58951;DHT22;44730;53.158;6.398;2022-08-19T04:19:29;13.50;99.90
58951;DHT22;44730;53.158;6.398;2022-08-19T04:21:55;13.50;99.90
58951;DHT22;44730;53.158;6.398;2022-08-19T04:24:22;13.50;99.90
58951;DHT22;44730;53.158;6.398;2022-08-19T04:26:48;13.50;99.90
58951;DHT22;44730;53.158;6.398;2022-08-19T04:29:17;13.50;99.90
58951;DHT22;44730;53.158;6.398;2022-08-19T04:31:44;13.50;99.90
58951;DHT22;44730;53.158;6.398;2022-08-19T04:34:14;13.50;99.90
58951;DHT22;44730;53.158;6.398;2022-08-19T04:36:42;13.50;99.90
58951;DHT22;44730;53.158;6.398;2022-08-19T04:39:18;13.40;99.90
58951;DHT22;44730;53.158;6.398;2022-08-19T04:41:45;13.40;99.90
58951;DHT22;44730;53.158;6.398;2022-08-19T04:44:32;13.40;99.90
58951;DHT22;44730;53.158;6.398;2022-08-19T04:46:58;13.40;99.90
58951;DHT22;44730;53.158;6.398;2022-08-19T04:49:23;13.50;99.90
58951;DHT22;44730;53.158;6.398;2022-08-19T04:51:51;13.50;99.90
58951;DHT22;44730;53.158;6.398;2022-08-19T04:54:22;13.50;99.90
58951;DHT22;44730;53.158;6.398;2022-08-19T04:56:52;13.50;99.90
58951;DHT22;44730;53.158;6.398;2022-08-19T04:59:19;13.50;99.90
58951;DHT22;44730;53.158;6.398;2022-08-19T05:01:46;13.50;99.90
58951;DHT22;44730;53.158;6.398;2022-08-19T05:04:17;13.50;99.90
58951;DHT22;44730;53.158;6.398;2022-08-19T05:06:43;13.50;99.90
58951;DHT22;44730;53.158;6.398;2022-08-19T05:09:09;13.50;99.90
58951;DHT22;44730;53.158;6.398;2022-08-19T05:11:37;13.60;99.90
58951;DHT22;44730;53.158;6.398;2022-08-19T05:14:08;13.60;99.90
58951;DHT22;44730;53.158;6.398;2022-08-19T05:16:34;13.70;99.90
58951;DHT22;44730;53.158;6.398;2022-08-19T05:19:02;13.80;99.90
58951;DHT22;44730;53.158;6.398;2022-08-19T05:21:46;13.80;99.90
58951;DHT22;44730;53.158;6.398;2022-08-19T05:24:31;14.00;99.90
58951;DHT22;44730;53.158;6.398;2022-08-19T05:27:01;14.20;99.90
58951;DHT22;44730;53.158;6.398;2022-08-19T05:29:29;14.40;99.90
58951;DHT22;44730;53.158;6.398;2022-08-19T05:31:57;14.70;99.90
58951;DHT22;44730;53.158;6.398;2022-08-19T05:34:25;14.90;99.90
58951;DHT22;44730;53.158;6.398;2022-08-19T05:36:56;15.10;99.90
58951;DHT22;44730;53.158;6.398;2022-08-19T05:39:25;15.30;99.90
58951;DHT22;44730;53.158;6.398;2022-08-19T05:41:58;15.50;99.90
58951;DHT22;44730;53.158;6.398;2022-08-19T05:44:26;15.70;99.90
58951;DHT22;44730;53.158;6.398;2022-08-19T05:46:52;16.00;99.90
58951;DHT22;44730;53.158;6.398;2022-08-19T05:49:21;16.20;99.90
58951;DHT22;44730;53.158;6.398;2022-08-19T05:51:49;16.30;99.90
58951;DHT22;44730;53.158;6.398;2022-08-19T05:54:15;16.50;99.90
58951;DHT22;44730;53.158;6.398;2022-08-19T05:56:41;16.70;99.90
58951;DHT22;44730;53.158;6.398;2022-08-19T05:59:10;17.00;99.90
58951;DHT22;44730;53.158;6.398;2022-08-19T06:01:38;17.20;99.90
58951;DHT22;44730;53.158;6.398;2022-08-19T06:04:05;17.50;99.90
58951;DHT22;44730;53.158;6.398;2022-08-19T06:06:32;17.70;99.90
58951;DHT22;44730;53.158;6.398;2022-08-19T06:09:04;18.10;99.90
58951;DHT22;44730;53.158;6.398;2022-08-19T06:11:40;18.30;99.90
58951;DHT22;44730;53.158;6.398;2022-08-19T06:14:08;18.70;99.90
58951;DHT22;44730;53.158;6.398;2022-08-19T06:16:36;19.00;99.90
58951;DHT22;44730;53.158;6.398;2022-08-19T06:19:07;19.40;99.90
58951;DHT22;44730;53.158;6.398;2022-08-19T06:21:35;19.60;99.90
58951;DHT22;44730;53.158;6.398;2022-08-19T06:24:04;19.90;99.90
58951;DHT22;44730;53.158;6.398;2022-08-19T06:26:31;20.20;99.90
58951;DHT22;44730;53.158;6.398;2022-08-19T06:28:57;20.30;99.90
58951;DHT22;44730;53.158;6.398;2022-08-19T06:31:26;20.40;99.90
58951;DHT22;44730;53.158;6.398;2022-08-19T06:33:53;20.60;99.90
58951;DHT22;44730;53.158;6.398;2022-08-19T06:36:28;20.80;99.90
58951;DHT22;44730;53.158;6.398;2022-08-19T06:38:57;20.90;99.90
58951;DHT22;44730;53.158;6.398;2022-08-19T06:41:27;21.10;99.90
58951;DHT22;44730;53.158;6.398;2022-08-19T06:43:53;21.30;99.90
58951;DHT22;44730;53.158;6.398;2022-08-19T06:46:20;21.50;99.90
58951;DHT22;44730;53.158;6.398;2022-08-19T06:48:46;21.60;99.90
58951;DHT22;44730;53.158;6.398;2022-08-19T06:51:16;21.70;99.90
58951;DHT22;44730;53.158;6.398;2022-08-19T06:54:02;21.90;99.90
58951;DHT22;44730;53.158;6.398;2022-08-19T06:56:30;22.00;99.90
58951;DHT22;44730;53.158;6.398;2022-08-19T06:59:10;22.20;99.90
58951;DHT22;44730;53.158;6.398;2022-08-19T07:01:38;22.30;99.90
58951;DHT22;44730;53.158;6.398;2022-08-19T07:04:06;22.30;99.90
58951;DHT22;44730;53.158;6.398;2022-08-19T07:06:32;22.40;99.90
58951;DHT22;44730;53.158;6.398;2022-08-19T07:08:58;22.60;99.90
58951;DHT22;44730;53.158;6.398;2022-08-19T07:11:24;22.80;99.90
58951;DHT22;44730;53.158;6.398;2022-08-19T07:13:50;22.90;99.90
58951;DHT22;44730;53.158;6.398;2022-08-19T07:16:19;23.00;99.90
58951;DHT22;44730;53.158;6.398;2022-08-19T07:18:49;23.10;99.90
58951;DHT22;44730;53.158;6.398;2022-08-19T07:21:24;23.10;99.90
58951;DHT22;44730;53.158;6.398;2022-08-19T07:23:55;23.30;99.90
58951;DHT22;44730;53.158;6.398;2022-08-19T07:26:27;23.30;99.90
58951;DHT22;44730;53.158;6.398;2022-08-19T07:28:54;23.50;99.90
58951;DHT22;44730;53.158;6.398;2022-08-19T07:31:22;23.70;99.90
58951;DHT22;44730;53.158;6.398;2022-08-19T07:33:50;23.90;99.90
58951;DHT22;44730;53.158;6.398;2022-08-19T07:36:19;24.00;99.90
58951;DHT22;44730;53.158;6.398;2022-08-19T07:38:47;24.10;99.90
58951;DHT22;44730;53.158;6.398;2022-08-19T07:41:16;24.30;99.90
58951;DHT22;44730;53.158;6.398;2022-08-19T07:43:43;24.40;99.90
58951;DHT22;44730;53.158;6.398;2022-08-19T07:46:10;24.60;99.90
58951;DHT22;44730;53.158;6.398;2022-08-19T07:48:36;24.80;99.90
58951;DHT22;44730;53.158;6.398;2022-08-19T07:51:04;24.80;99.90
58951;DHT22;44730;53.158;6.398;2022-08-19T07:53:32;25.00;99.90
58951;DHT22;44730;53.158;6.398;2022-08-19T07:56:00;25.20;99.90
58951;DHT22;44730;53.158;6.398;2022-08-19T07:58:28;25.30;99.90
58951;DHT22;44730;53.158;6.398;2022-08-19T08:00:54;25.50;99.90
58951;DHT22;44730;53.158;6.398;2022-08-19T08:03:21;25.60;99.90
58951;DHT22;44730;53.158;6.398;2022-08-19T08:06:08;25.60;99.90
58951;DHT22;44730;53.158;6.398;2022-08-19T08:08:52;25.90;99.90
58951;DHT22;44730;53.158;6.398;2022-08-19T08:14:03;26.30;99.90
58951;DHT22;44730;53.158;6.398;2022-08-19T08:16:37;26.40;99.90
58951;DHT22;44730;53.158;6.398;2022-08-19T08:19:06;26.60;99.90
58951;DHT22;44730;53.158;6.398;2022-08-19T08:21:33;26.80;99.90
58951;DHT22;44730;53.158;6.398;2022-08-19T08:23:59;26.90;99.90
58951;DHT22;44730;53.158;6.398;2022-08-19T08:26:25;27.00;99.90
58951;DHT22;44730;53.158;6.398;2022-08-19T08:28:52;26.90;99.90
58951;DHT22;44730;53.158;6.398;2022-08-19T08:31:18;26.90;99.90
58951;DHT22;44730;53.158;6.398;2022-08-19T08:33:45;27.00;99.90
58951;DHT22;44730;53.158;6.398;2022-08-19T08:36:12;27.10;99.90
58951;DHT22;44730;53.158;6.398;2022-08-19T08:38:42;27.20;99.90
58951;DHT22;44730;53.158;6.398;2022-08-19T08:41:51;27.20;99.90
58951;DHT22;44730;53.158;6.398;2022-08-19T08:44:26;27.20;99.90
58951;DHT22;44730;53.158;6.398;2022-08-19T08:46:58;27.30;99.90
58951;DHT22;44730;53.158;6.398;2022-08-19T08:49:51;27.50;99.90
58951;DHT22;44730;53.158;6.398;2022-08-19T08:52:24;27.60;99.90
58951;DHT22;44730;53.158;6.398;2022-08-19T08:54:54;27.80;99.90
58951;DHT22;44730;53.158;6.398;2022-08-19T09:00:15;28.00;99.90
58951;DHT22;44730;53.158;6.398;2022-08-19T09:02:43;28.10;99.90
58951;DHT22;44730;53.158;6.398;2022-08-19T09:05:10;28.30;99.90
58951;DHT22;44730;53.158;6.398;2022-08-19T09:08:06;28.30;99.90
58951;DHT22;44730;53.158;6.398;2022-08-19T09:10:38;28.30;99.90
58951;DHT22;44730;53.158;6.398;2022-08-19T09:16:19;28.40;99.90
58951;DHT22;44730;53.158;6.398;2022-08-19T09:18:55;28.50;99.90
58951;DHT22;44730;53.158;6.398;2022-08-19T09:21:24;28.60;99.90
58951;DHT22;44730;53.158;6.398;2022-08-19T09:23:51;28.80;99.90
58951;DHT22;44730;53.158;6.398;2022-08-19T09:26:19;29.00;99.90
58951;DHT22;44730;53.158;6.398;2022-08-19T09:28:47;29.00;99.90
58951;DHT22;44730;53.158;6.398;2022-08-19T09:31:16;29.20;99.90
58951;DHT22;44730;53.158;6.398;2022-08-19T09:33:43;29.30;99.90
58951;DHT22;44730;53.158;6.398;2022-08-19T09:36:11;29.40;99.90
58951;DHT22;44730;53.158;6.398;2022-08-19T09:38:39;29.50;99.90
58951;DHT22;44730;53.158;6.398;2022-08-19T09:41:08;29.60;99.90
58951;DHT22;44730;53.158;6.398;2022-08-19T09:43:34;29.70;99.90
58951;DHT22;44730;53.158;6.398;2022-08-19T09:46:05;29.70;99.90
58951;DHT22;44730;53.158;6.398;2022-08-19T09:48:32;29.80;99.90
58951;DHT22;44730;53.158;6.398;2022-08-19T09:51:06;29.90;99.90
58951;DHT22;44730;53.158;6.398;2022-08-19T09:53:34;30.10;99.90
58951;DHT22;44730;53.158;6.398;2022-08-19T09:56:01;30.10;99.90
58951;DHT22;44730;53.158;6.398;2022-08-19T09:58:27;30.10;99.90
58951;DHT22;44730;53.158;6.398;2022-08-19T10:00:55;30.00;99.90
58951;DHT22;44730;53.158;6.398;2022-08-19T10:03:22;30.10;99.90
58951;DHT22;44730;53.158;6.398;2022-08-19T10:05:48;30.20;99.90
58951;DHT22;44730;53.158;6.398;2022-08-19T10:08:20;30.30;99.90
58951;DHT22;44730;53.158;6.398;2022-08-19T10:10:48;30.20;99.90
58951;DHT22;44730;53.158;6.398;2022-08-19T10:13:16;30.40;99.90
58951;DHT22;44730;53.158;6.398;2022-08-19T10:15:42;30.60;99.80
58951;DHT22;44730;53.158;6.398;2022-08-19T10:18:08;30.70;99.90
58951;DHT22;44730;53.158;6.398;2022-08-19T10:20:34;30.90;99.30
58951;DHT22;44730;53.158;6.398;2022-08-19T10:23:02;31.00;99.00
58951;DHT22;44730;53.158;6.398;2022-08-19T10:25:28;31.00;99.30
58951;DHT22;44730;53.158;6.398;2022-08-19T10:27:54;31.30;98.50
58951;DHT22;44730;53.158;6.398;2022-08-19T10:30:21;31.50;99.50
58951;DHT22;44730;53.158;6.398;2022-08-19T10:32:47;31.60;98.30
58951;DHT22;44730;53.158;6.398;2022-08-19T10:35:13;31.80;98.10
58951;DHT22;44730;53.158;6.398;2022-08-19T10:37:40;32.10;97.80
58951;DHT22;44730;53.158;6.398;2022-08-19T10:40:07;32.20;96.60
58951;DHT22;44730;53.158;6.398;2022-08-19T10:42:34;32.40;95.40
58951;DHT22;44730;53.158;6.398;2022-08-19T10:45:00;32.60;94.90
58951;DHT22;44730;53.158;6.398;2022-08-19T10:47:26;32.60;94.80
58951;DHT22;44730;53.158;6.398;2022-08-19T10:49:53;32.70;94.60
58951;DHT22;44730;53.158;6.398;2022-08-19T10:52:46;32.80;93.70
58951;DHT22;44730;53.158;6.398;2022-08-19T10:55:13;33.10;91.80
58951;DHT22;44730;53.158;6.398;2022-08-19T10:57:57;33.40;91.20
58951;DHT22;44730;53.158;6.398;2022-08-19T11:00:25;33.40;91.60
58951;DHT22;44730;53.158;6.398;2022-08-19T11:02:51;33.50;90.20
58951;DHT22;44730;53.158;6.398;2022-08-19T11:05:18;33.40;90.40
58951;DHT22;44730;53.158;6.398;2022-08-19T11:07:44;33.50;88.80
58951;DHT22;44730;53.158;6.398;2022-08-19T11:10:13;33.50;86.60
58951;DHT22;44730;53.158;6.398;2022-08-19T11:12:40;33.40;84.30
58951;DHT22;44730;53.158;6.398;2022-08-19T11:15:08;33.60;87.10
58951;DHT22;44730;53.158;6.398;2022-08-19T11:17:37;33.30;84.60
58951;DHT22;44730;53.158;6.398;2022-08-19T11:20:09;32.60;83.60
58951;DHT22;44730;53.158;6.398;2022-08-19T11:22:34;32.00;84.40
58951;DHT22;44730;53.158;6.398;2022-08-19T11:25:08;31.50;85.60
58951;DHT22;44730;53.158;6.398;2022-08-19T11:27:40;31.10;88.80
58951;DHT22;44730;53.158;6.398;2022-08-19T11:30:11;30.90;89.60
58951;DHT22;44730;53.158;6.398;2022-08-19T11:32:38;30.50;90.80
58951;DHT22;44730;53.158;6.398;2022-08-19T11:35:04;30.30;91.00
58951;DHT22;44730;53.158;6.398;2022-08-19T11:37:30;30.20;91.30
58951;DHT22;44730;53.158;6.398;2022-08-19T11:39:56;30.10;91.60
58951;DHT22;44730;53.158;6.398;2022-08-19T11:42:23;30.10;92.00
58951;DHT22;44730;53.158;6.398;2022-08-19T11:45:07;30.40;92.40
58951;DHT22;44730;53.158;6.398;2022-08-19T11:47:33;30.40;90.80
58951;DHT22;44730;53.158;6.398;2022-08-19T11:49:59;30.20;90.50
58951;DHT22;44730;53.158;6.398;2022-08-19T11:52:25;30.30;90.90
58951;DHT22;44730;53.158;6.398;2022-08-19T11:54:50;30.30;90.70
58951;DHT22;44730;53.158;6.398;2022-08-19T11:57:16;30.40;90.60
58951;DHT22;44730;53.158;6.398;2022-08-19T11:59:48;30.30;90.60
58951;DHT22;44730;53.158;6.398;2022-08-19T12:02:15;30.40;91.10
58951;DHT22;44730;53.158;6.398;2022-08-19T12:04:40;30.70;90.80
58951;DHT22;44730;53.158;6.398;2022-08-19T12:07:06;31.30;91.00
58951;DHT22;44730;53.158;6.398;2022-08-19T12:09:32;32.00;90.30
58951;DHT22;44730;53.158;6.398;2022-08-19T12:12:00;32.50;86.50
58951;DHT22;44730;53.158;6.398;2022-08-19T12:14:27;32.90;85.40
58951;DHT22;44730;53.158;6.398;2022-08-19T12:16:55;33.20;85.70
58951;DHT22;44730;53.158;6.398;2022-08-19T12:19:21;33.10;82.80
58951;DHT22;44730;53.158;6.398;2022-08-19T12:21:47;32.40;82.40
58951;DHT22;44730;53.158;6.398;2022-08-19T12:24:13;31.90;82.60
58951;DHT22;44730;53.158;6.398;2022-08-19T12:26:39;31.20;83.50
58951;DHT22;44730;53.158;6.398;2022-08-19T12:29:05;30.80;85.20
58951;DHT22;44730;53.158;6.398;2022-08-19T12:31:31;30.40;87.30
58951;DHT22;44730;53.158;6.398;2022-08-19T12:33:58;30.10;89.70
58951;DHT22;44730;53.158;6.398;2022-08-19T12:36:24;30.00;89.50
58951;DHT22;44730;53.158;6.398;2022-08-19T12:38:51;29.80;89.70
58951;DHT22;44730;53.158;6.398;2022-08-19T12:41:17;29.50;90.30
58951;DHT22;44730;53.158;6.398;2022-08-19T12:43:44;29.30;90.60
58951;DHT22;44730;53.158;6.398;2022-08-19T12:46:11;29.20;91.20
58951;DHT22;44730;53.158;6.398;2022-08-19T12:48:37;29.00;91.90
58951;DHT22;44730;53.158;6.398;2022-08-19T12:51:09;29.00;92.30
58951;DHT22;44730;53.158;6.398;2022-08-19T12:53:36;28.90;92.50
58951;DHT22;44730;53.158;6.398;2022-08-19T12:56:02;28.80;94.10
58951;DHT22;44730;53.158;6.398;2022-08-19T12:58:29;28.70;95.60
58951;DHT22;44730;53.158;6.398;2022-08-19T13:00:54;28.70;96.80
58951;DHT22;44730;53.158;6.398;2022-08-19T13:03:21;28.50;97.90
58951;DHT22;44730;53.158;6.398;2022-08-19T13:05:50;28.30;99.30
58951;DHT22;44730;53.158;6.398;2022-08-19T13:08:16;28.30;99.90
58951;DHT22;44730;53.158;6.398;2022-08-19T13:10:42;28.20;99.90
58951;DHT22;44730;53.158;6.398;2022-08-19T13:13:09;28.20;99.90
58951;DHT22;44730;53.158;6.398;2022-08-19T13:15:37;28.50;99.90
58951;DHT22;44730;53.158;6.398;2022-08-19T13:18:06;28.70;99.90
58951;DHT22;44730;53.158;6.398;2022-08-19T13:20:32;28.60;99.50
58951;DHT22;44730;53.158;6.398;2022-08-19T13:22:57;28.60;99.40
58951;DHT22;44730;53.158;6.398;2022-08-19T13:25:24;28.40;98.60
58951;DHT22;44730;53.158;6.398;2022-08-19T13:27:51;28.10;98.80
58951;DHT22;44730;53.158;6.398;2022-08-19T13:30:18;27.90;99.30
58951;DHT22;44730;53.158;6.398;2022-08-19T13:33:04;27.70;99.80
58951;DHT22;44730;53.158;6.398;2022-08-19T13:35:37;27.50;99.90
58951;DHT22;44730;53.158;6.398;2022-08-19T13:38:03;27.30;99.90
58951;DHT22;44730;53.158;6.398;2022-08-19T13:40:32;27.20;99.90
58951;DHT22;44730;53.158;6.398;2022-08-19T13:43:02;27.00;99.90
58951;DHT22;44730;53.158;6.398;2022-08-19T13:45:29;27.00;99.90
58951;DHT22;44730;53.158;6.398;2022-08-19T13:48:00;26.80;99.90
58951;DHT22;44730;53.158;6.398;2022-08-19T13:50:29;26.70;99.90
58951;DHT22;44730;53.158;6.398;2022-08-19T13:52:57;26.70;99.90
58951;DHT22;44730;53.158;6.398;2022-08-19T13:55:24;26.60;99.90
58951;DHT22;44730;53.158;6.398;2022-08-19T13:57:52;26.50;99.90
58951;DHT22;44730;53.158;6.398;2022-08-19T14:00:18;26.50;99.90
58951;DHT22;44730;53.158;6.398;2022-08-19T14:02:45;26.40;99.90
58951;DHT22;44730;53.158;6.398;2022-08-19T14:05:14;26.50;99.90
58951;DHT22;44730;53.158;6.398;2022-08-19T14:07:40;26.50;99.90
58951;DHT22;44730;53.158;6.398;2022-08-19T14:10:08;26.60;99.90
58951;DHT22;44730;53.158;6.398;2022-08-19T14:12:35;26.70;99.90
58951;DHT22;44730;53.158;6.398;2022-08-19T14:15:02;26.70;99.90
58951;DHT22;44730;53.158;6.398;2022-08-19T14:17:28;26.80;99.90
58951;DHT22;44730;53.158;6.398;2022-08-19T14:19:59;26.90;99.90
58951;DHT22;44730;53.158;6.398;2022-08-19T14:22:26;26.90;99.90
58951;DHT22;44730;53.158;6.398;2022-08-19T14:24:52;26.80;99.90
58951;DHT22;44730;53.158;6.398;2022-08-19T14:27:18;26.80;99.90
58951;DHT22;44730;53.158;6.398;2022-08-19T14:29:44;26.80;99.90
58951;DHT22;44730;53.158;6.398;2022-08-19T14:32:11;26.80;99.90
58951;DHT22;44730;53.158;6.398;2022-08-19T14:34:37;26.80;99.90
58951;DHT22;44730;53.158;6.398;2022-08-19T14:37:03;27.00;99.90
58951;DHT22;44730;53.158;6.398;2022-08-19T14:39:29;27.20;99.90
58951;DHT22;44730;53.158;6.398;2022-08-19T14:41:55;27.40;99.90
58951;DHT22;44730;53.158;6.398;2022-08-19T14:44:21;27.40;99.90
58951;DHT22;44730;53.158;6.398;2022-08-19T14:46:48;27.50;99.90
58951;DHT22;44730;53.158;6.398;2022-08-19T14:49:13;27.60;99.90
58951;DHT22;44730;53.158;6.398;2022-08-19T14:51:39;28.20;99.90
58951;DHT22;44730;53.158;6.398;2022-08-19T14:54:05;28.90;99.90
58951;DHT22;44730;53.158;6.398;2022-08-19T14:56:31;29.10;99.90
58951;DHT22;44730;53.158;6.398;2022-08-19T14:58:57;29.00;99.90
58951;DHT22;44730;53.158;6.398;2022-08-19T15:01:28;28.80;99.90
58951;DHT22;44730;53.158;6.398;2022-08-19T15:03:54;28.80;99.90
58951;DHT22;44730;53.158;6.398;2022-08-19T15:06:23;28.70;99.90
58951;DHT22;44730;53.158;6.398;2022-08-19T15:08:49;28.60;99.90
58951;DHT22;44730;53.158;6.398;2022-08-19T15:11:19;28.50;99.90
58951;DHT22;44730;53.158;6.398;2022-08-19T15:13:47;28.30;99.90
58951;DHT22;44730;53.158;6.398;2022-08-19T15:16:13;28.20;99.90
58951;DHT22;44730;53.158;6.398;2022-08-19T15:18:43;28.00;99.90
58951;DHT22;44730;53.158;6.398;2022-08-19T15:21:14;27.90;99.90
58951;DHT22;44730;53.158;6.398;2022-08-19T15:23:45;27.80;99.90
58951;DHT22;44730;53.158;6.398;2022-08-19T15:26:11;27.70;99.90
58951;DHT22;44730;53.158;6.398;2022-08-19T15:28:38;27.60;99.90
58951;DHT22;44730;53.158;6.398;2022-08-19T15:31:04;27.60;99.90
58951;DHT22;44730;53.158;6.398;2022-08-19T15:33:34;27.90;99.90
58951;DHT22;44730;53.158;6.398;2022-08-19T15:36:06;28.60;99.90
58951;DHT22;44730;53.158;6.398;2022-08-19T15:38:33;28.80;99.90
58951;DHT22;44730;53.158;6.398;2022-08-19T15:41:03;28.80;99.90
58951;DHT22;44730;53.158;6.398;2022-08-19T15:44:09;28.50;99.90
58951;DHT22;44730;53.158;6.398;2022-08-19T15:46:37;28.10;99.90
58951;DHT22;44730;53.158;6.398;2022-08-19T15:49:05;28.00;99.90